sensor_id;sensor_type;location;lat;lon;timestamp;pressure;altitude;pressure_sealevel;temperature;humidity
39435;BME280;66825;51.880;-0.518;2024-02-28T00:01:37;100901.75;;;15.56;42.52
39435;BME280;66825;51.880;-0.518;2024-02-28T00:04:03;101000.78;;;16.16;42.70
39435;BME280;66825;51.880;-0.518;2024-02-28T00:06:28;101015.22;;;16.11;42.81
39435;BME280;66825;51.880;-0.518;2024-02-28T00:08:54;101027.16;;;16.15;42.59
39435;BME280;66825;51.880;-0.518;2024-02-28T00:11:20;101013.56;;;16.05;42.59
39435;BME280;66825;51.880;-0.518;2024-02-28T00:13:46;100914.25;;;15.52;42.85
39435;BME280;66825;51.880;-0.518;2024-02-28T00:16:11;101024.97;;;16.12;42.48
39435;BME280;66825;51.880;-0.518;2024-02-28T00:18:37;101020.66;;;16.11;42.82
39435;BME280;66825;51.880;-0.518;2024-02-28T00:21:03;100983.44;;;15.81;42.59
39435;BME280;66825;51.880;-0.518;2024-02-28T00:23:29;101034.50;;;16.10;42.68
39435;BME280;66825;51.880;-0.518;2024-02-28T00:25:55;101008.97;;;16.06;42.66
39435;BME280;66825;51.880;-0.518;2024-02-28T00:28:20;101008.44;;;16.03;42.60
39435;BME280;66825;51.880;-0.518;2024-02-28T00:30:46;101012.50;;;16.01;42.71
39435;BME280;66825;51.880;-0.518;2024-02-28T00:33:11;101014.13;;;16.07;42.78
39435;BME280;66825;51.880;-0.518;2024-02-28T00:35:37;100902.88;;;15.45;42.72
39435;BME280;66825;51.880;-0.518;2024-02-28T00:38:02;101011.97;;;16.04;42.48
39435;BME280;66825;51.880;-0.518;2024-02-28T00:40:28;101006.53;;;16.04;42.86
39435;BME280;66825;51.880;-0.518;2024-02-28T00:42:54;100894.69;;;15.40;42.66
39435;BME280;66825;51.880;-0.518;2024-02-28T00:45:20;100989.72;;;15.97;42.76
39435;BME280;66825;51.880;-0.518;2024-02-28T00:47:45;100953.28;;;15.77;42.98
39435;BME280;66825;51.880;-0.518;2024-02-28T00:50:11;101000.84;;;16.00;42.59
39435;BME280;66825;51.880;-0.518;2024-02-28T00:52:37;100988.34;;;15.99;42.96
39435;BME280;66825;51.880;-0.518;2024-02-28T00:55:03;100989.13;;;16.00;42.92
39435;BME280;66825;51.880;-0.518;2024-02-28T00:57:31;100977.78;;;15.87;42.77
39435;BME280;66825;51.880;-0.518;2024-02-28T00:59:57;100967.13;;;15.81;42.73
39435;BME280;66825;51.880;-0.518;2024-02-28T01:02:22;100981.56;;;15.86;42.78
39435;BME280;66825;51.880;-0.518;2024-02-28T01:04:48;100987.53;;;15.94;42.78
39435;BME280;66825;51.880;-0.518;2024-02-28T01:07:13;100982.63;;;15.91;42.82
39435;BME280;66825;51.880;-0.518;2024-02-28T01:09:39;100818.25;;;14.86;42.57
39435;BME280;66825;51.880;-0.518;2024-02-28T01:12:04;100822.03;;;14.80;42.78
39435;BME280;66825;51.880;-0.518;2024-02-28T01:14:30;100890.94;;;15.31;43.03
39435;BME280;66825;51.880;-0.518;2024-02-28T01:16:55;100992.69;;;15.90;42.85
39435;BME280;66825;51.880;-0.518;2024-02-28T01:19:21;100991.63;;;15.91;42.85
39435;BME280;66825;51.880;-0.518;2024-02-28T01:21:46;100970.16;;;15.79;42.77
39435;BME280;66825;51.880;-0.518;2024-02-28T01:24:12;100990.53;;;15.87;42.65
39435;BME280;66825;51.880;-0.518;2024-02-28T01:26:37;100969.88;;;15.76;42.59
39435;BME280;66825;51.880;-0.518;2024-02-28T01:29:03;100994.06;;;15.87;42.79
39435;BME280;66825;51.880;-0.518;2024-02-28T01:31:28;100990.00;;;15.85;42.91
39435;BME280;66825;51.880;-0.518;2024-02-28T01:33:53;100991.03;;;15.79;42.92
39435;BME280;66825;51.880;-0.518;2024-02-28T01:36:21;101001.69;;;15.85;42.83
39435;BME280;66825;51.880;-0.518;2024-02-28T01:38:46;101006.31;;;15.85;42.72
39435;BME280;66825;51.880;-0.518;2024-02-28T01:41:12;101000.03;;;15.84;42.92
39435;BME280;66825;51.880;-0.518;2024-02-28T01:43:37;101000.56;;;15.81;42.99
39435;BME280;66825;51.880;-0.518;2024-02-28T01:46:17;101006.53;;;15.78;42.61
39435;BME280;66825;51.880;-0.518;2024-02-28T01:48:46;101008.72;;;15.81;42.77
39435;BME280;66825;51.880;-0.518;2024-02-28T01:51:12;101003.53;;;15.80;43.04
39435;BME280;66825;51.880;-0.518;2024-02-28T01:53:37;100987.00;;;15.71;42.71
39435;BME280;66825;51.880;-0.518;2024-02-28T01:56:03;101011.69;;;15.80;43.10
39435;BME280;66825;51.880;-0.518;2024-02-28T01:58:29;101010.66;;;15.70;42.75
39435;BME280;66825;51.880;-0.518;2024-02-28T02:00:55;101001.69;;;15.65;43.04
39435;BME280;66825;51.880;-0.518;2024-02-28T02:03:21;101022.84;;;15.78;42.76
39435;BME280;66825;51.880;-0.518;2024-02-28T02:05:47;100838.31;;;14.65;42.80
39435;BME280;66825;51.880;-0.518;2024-02-28T02:08:13;101011.97;;;15.78;42.93
39435;BME280;66825;51.880;-0.518;2024-02-28T02:10:38;100993.78;;;15.73;42.80
39435;BME280;66825;51.880;-0.518;2024-02-28T02:13:07;100894.47;;;15.05;42.83
39435;BME280;66825;51.880;-0.518;2024-02-28T02:15:33;101000.03;;;15.74;42.93
39435;BME280;66825;51.880;-0.518;2024-02-28T02:17:58;100903.16;;;15.18;42.84
39435;BME280;66825;51.880;-0.518;2024-02-28T02:20:25;100987.78;;;15.71;42.68
39435;BME280;66825;51.880;-0.518;2024-02-28T02:22:52;100984.28;;;15.71;43.03
39435;BME280;66825;51.880;-0.518;2024-02-28T02:25:18;100990.25;;;15.73;42.91
39435;BME280;66825;51.880;-0.518;2024-02-28T02:27:43;100986.44;;;15.69;42.75
39435;BME280;66825;51.880;-0.518;2024-02-28T02:30:09;100992.44;;;15.71;42.84
39435;BME280;66825;51.880;-0.518;2024-02-28T02:32:35;100991.63;;;15.70;42.93
39435;BME280;66825;51.880;-0.518;2024-02-28T02:35:00;100996.25;;;15.65;42.82
39435;BME280;66825;51.880;-0.518;2024-02-28T02:37:26;100992.72;;;15.69;42.79
39435;BME280;66825;51.880;-0.518;2024-02-28T02:39:51;100893.09;;;15.03;42.91
39435;BME280;66825;51.880;-0.518;2024-02-28T02:42:17;100987.53;;;15.63;42.83
39435;BME280;66825;51.880;-0.518;2024-02-28T02:44:43;100995.69;;;15.68;42.90
39435;BME280;66825;51.880;-0.518;2024-02-28T02:47:08;100979.69;;;15.51;43.02
39435;BME280;66825;51.880;-0.518;2024-02-28T02:49:33;101000.59;;;15.66;42.99
39435;BME280;66825;51.880;-0.518;2024-02-28T02:51:59;100973.19;;;15.47;43.00
39435;BME280;66825;51.880;-0.518;2024-02-28T02:54:24;100996.25;;;15.65;42.80
39435;BME280;66825;51.880;-0.518;2024-02-28T02:56:50;100973.16;;;15.52;42.92
39435;BME280;66825;51.880;-0.518;2024-02-28T02:59:15;101006.28;;;15.64;42.73
39435;BME280;66825;51.880;-0.518;2024-02-28T03:01:41;101001.97;;;15.63;42.95
39435;BME280;66825;51.880;-0.518;2024-02-28T03:04:06;100956.63;;;15.38;42.71
39435;BME280;66825;51.880;-0.518;2024-02-28T03:06:31;100890.97;;;15.00;42.88
39435;BME280;66825;51.880;-0.518;2024-02-28T03:08:57;100987.00;;;15.61;42.92
39435;BME280;66825;51.880;-0.518;2024-02-28T03:11:23;100961.78;;;15.45;43.12
39435;BME280;66825;51.880;-0.518;2024-02-28T03:13:48;101012.56;;;15.60;43.27
39435;BME280;66825;51.880;-0.518;2024-02-28T03:16:15;100990.28;;;15.57;43.10
39435;BME280;66825;51.880;-0.518;2024-02-28T03:18:41;100999.22;;;15.58;43.08
39435;BME280;66825;51.880;-0.518;2024-02-28T03:21:06;100996.78;;;15.56;43.15
39435;BME280;66825;51.880;-0.518;2024-02-28T03:23:32;100912.09;;;15.03;43.01
39435;BME280;66825;51.880;-0.518;2024-02-28T03:25:58;100995.44;;;15.54;43.09
39435;BME280;66825;51.880;-0.518;2024-02-28T03:28:23;100977.53;;;15.48;43.00
39435;BME280;66825;51.880;-0.518;2024-02-28T03:30:49;100893.94;;;14.93;42.96
39435;BME280;66825;51.880;-0.518;2024-02-28T03:33:14;100996.00;;;15.56;42.83
39435;BME280;66825;51.880;-0.518;2024-02-28T03:35:40;100977.78;;;15.51;43.03
39435;BME280;66825;51.880;-0.518;2024-02-28T03:38:05;100991.91;;;15.53;42.97
39435;BME280;66825;51.880;-0.518;2024-02-28T03:40:31;100985.66;;;15.53;43.15
39435;BME280;66825;51.880;-0.518;2024-02-28T03:42:56;100983.75;;;15.53;42.94
39435;BME280;66825;51.880;-0.518;2024-02-28T03:45:22;100845.88;;;14.63;43.11
39435;BME280;66825;51.880;-0.518;2024-02-28T03:47:48;100896.38;;;14.89;43.14
39435;BME280;66825;51.880;-0.518;2024-02-28T03:50:13;100997.59;;;15.52;43.19
39435;BME280;66825;51.880;-0.518;2024-02-28T03:52:39;100869.78;;;14.76;43.06
39435;BME280;66825;51.880;-0.518;2024-02-28T03:55:04;100997.88;;;15.50;43.02
39435;BME280;66825;51.880;-0.518;2024-02-28T03:57:30;100968.00;;;15.40;42.94
39435;BME280;66825;51.880;-0.518;2024-02-28T03:59:55;100976.44;;;15.49;42.98
39435;BME280;66825;51.880;-0.518;2024-02-28T04:02:21;100976.16;;;15.40;43.11
39435;BME280;66825;51.880;-0.518;2024-02-28T04:04:46;100945.75;;;15.17;43.15
39435;BME280;66825;51.880;-0.518;2024-02-28T04:07:12;100973.19;;;15.36;42.97
39435;BME280;66825;51.880;-0.518;2024-02-28T04:09:37;100981.31;;;15.47;43.14
39435;BME280;66825;51.880;-0.518;2024-02-28T04:12:03;100988.63;;;15.46;43.19
39435;BME280;66825;51.880;-0.518;2024-02-28T04:14:28;100981.06;;;15.43;43.00
39435;BME280;66825;51.880;-0.518;2024-02-28T04:16:54;100916.47;;;14.99;43.18
39435;BME280;66825;51.880;-0.518;2024-02-28T04:19:19;100885.53;;;14.79;43.06
39435;BME280;66825;51.880;-0.518;2024-02-28T04:21:45;100888.50;;;14.77;42.96
39435;BME280;66825;51.880;-0.518;2024-02-28T04:24:10;100887.41;;;14.79;43.05
39435;BME280;66825;51.880;-0.518;2024-02-28T04:26:36;100985.41;;;15.29;42.95
39435;BME280;66825;51.880;-0.518;2024-02-28T04:29:01;101005.50;;;15.43;42.91
39435;BME280;66825;51.880;-0.518;2024-02-28T04:31:32;100993.00;;;15.42;42.82
39435;BME280;66825;51.880;-0.518;2024-02-28T04:33:58;100983.22;;;15.41;43.06
39435;BME280;66825;51.880;-0.518;2024-02-28T04:36:23;100979.72;;;15.40;43.14
39435;BME280;66825;51.880;-0.518;2024-02-28T04:38:48;100860.81;;;14.70;43.02
39435;BME280;66825;51.880;-0.518;2024-02-28T04:41:14;100971.81;;;15.39;43.16
39435;BME280;66825;51.880;-0.518;2024-02-28T04:43:40;100967.50;;;15.38;43.12
39435;BME280;66825;51.880;-0.518;2024-02-28T04:46:05;100970.22;;;15.38;43.04
39435;BME280;66825;51.880;-0.518;2024-02-28T04:48:31;100634.03;;;13.19;42.95
39435;BME280;66825;51.880;-0.518;2024-02-28T04:50:56;100967.75;;;15.36;43.08
39435;BME280;66825;51.880;-0.518;2024-02-28T04:53:22;100971.53;;;15.35;43.16
39435;BME280;66825;51.880;-0.518;2024-02-28T04:55:47;100943.59;;;15.19;42.98
39435;BME280;66825;51.880;-0.518;2024-02-28T04:58:13;100882.53;;;14.81;43.03
39435;BME280;66825;51.880;-0.518;2024-02-28T05:00:39;100973.44;;;15.35;43.38
39435;BME280;66825;51.880;-0.518;2024-02-28T05:03:04;100978.09;;;15.34;43.21
39435;BME280;66825;51.880;-0.518;2024-02-28T05:05:30;100957.44;;;15.28;43.02
39435;BME280;66825;51.880;-0.518;2024-02-28T05:07:55;100909.13;;;15.15;43.14
39435;BME280;66825;51.880;-0.518;2024-02-28T05:10:21;100934.91;;;15.33;43.09
39435;BME280;66825;51.880;-0.518;2024-02-28T05:12:46;100906.13;;;15.16;42.87
39435;BME280;66825;51.880;-0.518;2024-02-28T05:15:11;100862.19;;;14.93;43.03
39435;BME280;66825;51.880;-0.518;2024-02-28T05:17:37;100839.97;;;14.71;43.05
39435;BME280;66825;51.880;-0.518;2024-02-28T05:20:03;100873.03;;;14.88;43.00
39435;BME280;66825;51.880;-0.518;2024-02-28T05:22:28;100938.19;;;15.30;43.10
39435;BME280;66825;51.880;-0.518;2024-02-28T05:24:54;100931.91;;;15.29;43.12
39435;BME280;66825;51.880;-0.518;2024-02-28T05:27:19;100921.63;;;15.26;43.17
39435;BME280;66825;51.880;-0.518;2024-02-28T05:29:45;100927.56;;;15.28;43.22
39435;BME280;66825;51.880;-0.518;2024-02-28T05:32:10;100924.84;;;15.28;43.16
39435;BME280;66825;51.880;-0.518;2024-02-28T05:34:36;100922.69;;;15.25;43.16
39435;BME280;66825;51.880;-0.518;2024-02-28T05:37:02;100839.41;;;14.74;43.08
39435;BME280;66825;51.880;-0.518;2024-02-28T05:39:27;100934.09;;;15.27;43.14
39435;BME280;66825;51.880;-0.518;2024-02-28T05:41:56;100836.41;;;14.60;43.04
39435;BME280;66825;51.880;-0.518;2024-02-28T05:44:22;100840.19;;;14.64;43.10
39435;BME280;66825;51.880;-0.518;2024-02-28T05:46:49;100944.41;;;15.25;43.07
39435;BME280;66825;51.880;-0.518;2024-02-28T05:49:14;100934.63;;;15.24;42.84
39435;BME280;66825;51.880;-0.518;2024-02-28T05:51:40;100931.94;;;15.24;43.15
39435;BME280;66825;51.880;-0.518;2024-02-28T05:54:05;100935.44;;;15.24;43.23
39435;BME280;66825;51.880;-0.518;2024-02-28T05:56:30;100916.44;;;15.19;43.04
39435;BME280;66825;51.880;-0.518;2024-02-28T05:58:56;100860.56;;;14.82;43.12
39435;BME280;66825;51.880;-0.518;2024-02-28T06:01:21;100822.84;;;14.60;43.07
39435;BME280;66825;51.880;-0.518;2024-02-28T06:03:47;100926.78;;;15.22;43.17
39435;BME280;66825;51.880;-0.518;2024-02-28T06:06:13;100913.47;;;15.21;43.13
39435;BME280;66825;51.880;-0.518;2024-02-28T06:08:39;100869.81;;;14.86;43.22
39435;BME280;66825;51.880;-0.518;2024-02-28T06:11:06;100851.06;;;14.80;43.14
39435;BME280;66825;51.880;-0.518;2024-02-28T06:13:31;100906.44;;;15.20;43.14
39435;BME280;66825;51.880;-0.518;2024-02-28T06:15:58;100896.91;;;15.17;43.22
39435;BME280;66825;51.880;-0.518;2024-02-28T06:18:25;100876.03;;;15.02;43.27
39435;BME280;66825;51.880;-0.518;2024-02-28T06:20:56;100890.41;;;15.13;43.21
39435;BME280;66825;51.880;-0.518;2024-02-28T06:23:25;100890.41;;;15.18;43.21
39435;BME280;66825;51.880;-0.518;2024-02-28T06:25:50;100880.09;;;15.10;43.06
39435;BME280;66825;51.880;-0.518;2024-02-28T06:28:16;100852.16;;;14.89;43.26
39435;BME280;66825;51.880;-0.518;2024-02-28T06:30:43;100893.66;;;15.15;43.61
39435;BME280;66825;51.880;-0.518;2024-02-28T06:33:12;100897.97;;;15.16;43.21
39435;BME280;66825;51.880;-0.518;2024-02-28T06:35:37;100896.09;;;15.17;43.25
39435;BME280;66825;51.880;-0.518;2024-02-28T06:38:03;100893.94;;;15.08;43.20
39435;BME280;66825;51.880;-0.518;2024-02-28T06:40:28;100909.94;;;15.15;43.36
39435;BME280;66825;51.880;-0.518;2024-02-28T06:42:54;100902.91;;;15.14;43.29
39435;BME280;66825;51.880;-0.518;2024-02-28T06:45:19;100902.06;;;15.14;43.36
39435;BME280;66825;51.880;-0.518;2024-02-28T06:47:46;100907.50;;;15.14;43.35
39435;BME280;66825;51.880;-0.518;2024-02-28T06:50:11;100790.28;;;14.44;43.04
39435;BME280;66825;51.880;-0.518;2024-02-28T06:52:37;100898.00;;;15.01;43.17
39435;BME280;66825;51.880;-0.518;2024-02-28T06:55:02;100906.97;;;15.12;43.05
39435;BME280;66825;51.880;-0.518;2024-02-28T06:57:42;100882.81;;;15.05;43.04
39435;BME280;66825;51.880;-0.518;2024-02-28T07:00:10;100902.06;;;15.24;42.95
39435;BME280;66825;51.880;-0.518;2024-02-28T07:02:40;100816.06;;;14.73;43.13
39435;BME280;66825;51.880;-0.518;2024-02-28T07:05:05;100896.38;;;15.31;43.10
39435;BME280;66825;51.880;-0.518;2024-02-28T07:07:32;100813.66;;;14.82;43.10
39435;BME280;66825;51.880;-0.518;2024-02-28T07:09:58;100893.91;;;15.39;43.05
39435;BME280;66825;51.880;-0.518;2024-02-28T07:12:23;100896.06;;;15.43;42.97
39435;BME280;66825;51.880;-0.518;2024-02-28T07:14:50;100703.53;;;14.29;42.91
39435;BME280;66825;51.880;-0.518;2024-02-28T07:17:16;100897.94;;;15.47;42.94
39435;BME280;66825;51.880;-0.518;2024-02-28T07:19:41;100798.16;;;14.87;42.89
39435;BME280;66825;51.880;-0.518;2024-02-28T07:22:06;100897.94;;;15.57;42.98
39435;BME280;66825;51.880;-0.518;2024-02-28T07:24:32;100777.56;;;14.86;42.79
39435;BME280;66825;51.880;-0.518;2024-02-28T07:26:57;100893.31;;;15.63;42.61
39435;BME280;66825;51.880;-0.518;2024-02-28T07:29:23;100847.75;;;15.39;42.83
39435;BME280;66825;51.880;-0.518;2024-02-28T07:31:51;100882.97;;;15.70;42.70
39435;BME280;66825;51.880;-0.518;2024-02-28T07:34:17;100888.66;;;15.74;42.67
39435;BME280;66825;51.880;-0.518;2024-02-28T07:36:42;100890.00;;;15.77;42.93
39435;BME280;66825;51.880;-0.518;2024-02-28T07:39:08;100899.53;;;15.69;42.79
39435;BME280;66825;51.880;-0.518;2024-02-28T07:41:38;100878.09;;;15.67;42.71
39435;BME280;66825;51.880;-0.518;2024-02-28T07:44:04;100807.34;;;15.22;42.96
39435;BME280;66825;51.880;-0.518;2024-02-28T07:46:30;100893.81;;;15.86;42.66
39435;BME280;66825;51.880;-0.518;2024-02-28T07:48:55;100817.56;;;15.46;42.70
39435;BME280;66825;51.880;-0.518;2024-02-28T07:51:21;100892.41;;;15.94;42.68
39435;BME280;66825;51.880;-0.518;2024-02-28T07:53:47;100904.91;;;15.95;42.75
39435;BME280;66825;51.880;-0.518;2024-02-28T07:56:16;100904.91;;;15.95;42.67
39435;BME280;66825;51.880;-0.518;2024-02-28T07:58:43;100903.00;;;16.00;42.59
39435;BME280;66825;51.880;-0.518;2024-02-28T08:01:08;100914.38;;;16.02;42.44
39435;BME280;66825;51.880;-0.518;2024-02-28T08:03:33;100868.00;;;15.83;42.69
39435;BME280;66825;51.880;-0.518;2024-02-28T08:05:59;100916.53;;;16.11;42.39
39435;BME280;66825;51.880;-0.518;2024-02-28T08:08:24;100913.00;;;16.10;42.72
39435;BME280;66825;51.880;-0.518;2024-02-28T08:10:50;100843.06;;;15.66;42.52
39435;BME280;66825;51.880;-0.518;2024-02-28T08:13:18;100893.19;;;16.04;42.35
39435;BME280;66825;51.880;-0.518;2024-02-28T08:15:44;100916.50;;;16.16;42.06
39435;BME280;66825;51.880;-0.518;2024-02-28T08:18:09;100825.09;;;15.70;42.39
39435;BME280;66825;51.880;-0.518;2024-02-28T08:20:37;100923.81;;;16.26;42.22
39435;BME280;66825;51.880;-0.518;2024-02-28T08:23:03;100919.19;;;16.26;42.53
39435;BME280;66825;51.880;-0.518;2024-02-28T08:25:29;100738.41;;;15.23;42.34
39435;BME280;66825;51.880;-0.518;2024-02-28T08:27:54;100898.22;;;16.27;42.58
39435;BME280;66825;51.880;-0.518;2024-02-28T08:30:20;100917.72;;;16.44;43.12
39435;BME280;66825;51.880;-0.518;2024-02-28T08:32:45;100923.38;;;16.53;42.93
39435;BME280;66825;51.880;-0.518;2024-02-28T08:35:11;100926.03;;;16.63;43.25
39435;BME280;66825;51.880;-0.518;2024-02-28T08:37:39;100901.34;;;16.55;43.14
39435;BME280;66825;51.880;-0.518;2024-02-28T08:40:06;100925.41;;;16.77;43.22
39435;BME280;66825;51.880;-0.518;2024-02-28T08:42:32;100805.34;;;16.14;42.74
39435;BME280;66825;51.880;-0.518;2024-02-28T08:44:59;100831.00;;;16.38;42.42
39435;BME280;66825;51.880;-0.518;2024-02-28T08:47:25;100916.06;;;16.93;42.41
39435;BME280;66825;51.880;-0.518;2024-02-28T08:49:52;100826.31;;;16.48;42.72
39435;BME280;66825;51.880;-0.518;2024-02-28T08:52:19;100912.97;;;17.05;42.53
39435;BME280;66825;51.880;-0.518;2024-02-28T08:54:44;100892.31;;;17.04;42.00
39435;BME280;66825;51.880;-0.518;2024-02-28T08:57:10;100815.34;;;16.59;42.41
39435;BME280;66825;51.880;-0.518;2024-02-28T08:59:35;100895.97;;;17.19;42.39
39435;BME280;66825;51.880;-0.518;2024-02-28T09:02:01;100778.66;;;16.56;42.75
39435;BME280;66825;51.880;-0.518;2024-02-28T09:04:26;100894.28;;;17.28;42.71
39435;BME280;66825;51.880;-0.518;2024-02-28T09:06:51;100888.22;;;17.31;42.62
39435;BME280;66825;51.880;-0.518;2024-02-28T09:09:20;100889.81;;;17.37;42.50
39435;BME280;66825;51.880;-0.518;2024-02-28T09:11:45;100890.56;;;17.43;42.39
39435;BME280;66825;51.880;-0.518;2024-02-28T09:14:11;100795.28;;;16.84;42.71
39435;BME280;66825;51.880;-0.518;2024-02-28T09:16:36;100895.09;;;17.53;42.43
39435;BME280;66825;51.880;-0.518;2024-02-28T09:19:04;100893.94;;;17.59;42.65
39435;BME280;66825;51.880;-0.518;2024-02-28T09:21:29;100808.91;;;17.13;42.57
39435;BME280;66825;51.880;-0.518;2024-02-28T09:23:55;100896.00;;;17.72;42.54
39435;BME280;66825;51.880;-0.518;2024-02-28T09:26:20;100723.88;;;16.68;43.36
39435;BME280;66825;51.880;-0.518;2024-02-28T09:28:46;100805.75;;;17.30;43.32
39435;BME280;66825;51.880;-0.518;2024-02-28T09:31:11;100910.16;;;17.93;43.32
39435;BME280;66825;51.880;-0.518;2024-02-28T09:33:37;100862.91;;;17.79;43.39
39435;BME280;66825;51.880;-0.518;2024-02-28T09:36:04;100884.94;;;18.07;43.54
39435;BME280;66825;51.880;-0.518;2024-02-28T09:38:29;100882.97;;;18.13;43.46
39435;BME280;66825;51.880;-0.518;2024-02-28T09:40:55;100867.38;;;18.18;43.17
39435;BME280;66825;51.880;-0.518;2024-02-28T09:43:31;100862.13;;;18.22;43.77
39435;BME280;66825;51.880;-0.518;2024-02-28T09:46:03;100864.19;;;18.30;43.58
39435;BME280;66825;51.880;-0.518;2024-02-28T09:48:30;100839.25;;;18.18;43.78
39435;BME280;66825;51.880;-0.518;2024-02-28T09:50:56;100863.75;;;18.42;43.69
39435;BME280;66825;51.880;-0.518;2024-02-28T09:53:22;100860.19;;;18.41;43.12
39435;BME280;66825;51.880;-0.518;2024-02-28T09:55:49;100818.81;;;18.20;42.60
39435;BME280;66825;51.880;-0.518;2024-02-28T09:58:15;100866.63;;;18.51;42.57
39435;BME280;66825;51.880;-0.518;2024-02-28T10:00:43;100799.28;;;18.13;42.66
39435;BME280;66825;51.880;-0.518;2024-02-28T10:03:12;100840.31;;;18.41;42.32
39435;BME280;66825;51.880;-0.518;2024-02-28T10:05:38;100835.88;;;18.45;42.36
39435;BME280;66825;51.880;-0.518;2024-02-28T10:08:05;100841.53;;;18.49;42.01
39435;BME280;66825;51.880;-0.518;2024-02-28T10:10:31;100849.81;;;18.63;42.56
39435;BME280;66825;51.880;-0.518;2024-02-28T10:12:57;100846.19;;;18.67;42.60
39435;BME280;66825;51.880;-0.518;2024-02-28T10:15:26;100855.38;;;18.71;42.57
39435;BME280;66825;51.880;-0.518;2024-02-28T10:17:52;100851.75;;;18.76;42.56
39435;BME280;66825;51.880;-0.518;2024-02-28T10:20:17;100741.78;;;18.09;42.33
39435;BME280;66825;51.880;-0.518;2024-02-28T10:22:43;100755.88;;;18.17;42.91
39435;BME280;66825;51.880;-0.518;2024-02-28T10:25:08;100786.25;;;18.43;43.05
39435;BME280;66825;51.880;-0.518;2024-02-28T10:27:34;100858.84;;;18.96;43.24
39435;BME280;66825;51.880;-0.518;2024-02-28T10:30:01;100814.97;;;18.73;43.22
39435;BME280;66825;51.880;-0.518;2024-02-28T10:32:32;100866.75;;;19.12;43.08
39435;BME280;66825;51.880;-0.518;2024-02-28T10:35:00;100825.84;;;18.93;43.30
39435;BME280;66825;51.880;-0.518;2024-02-28T10:37:28;100862.13;;;19.26;43.80
39435;BME280;66825;51.880;-0.518;2024-02-28T10:39:57;100797.50;;;18.88;43.24
39435;BME280;66825;51.880;-0.518;2024-02-28T10:42:22;100858.09;;;19.38;42.83
39435;BME280;66825;51.880;-0.518;2024-02-28T10:44:52;100827.22;;;19.23;42.98
39435;BME280;66825;51.880;-0.518;2024-02-28T10:47:19;100837.53;;;19.40;43.17
39435;BME280;66825;51.880;-0.518;2024-02-28T10:49:45;100843.63;;;19.51;42.59
39435;BME280;66825;51.880;-0.518;2024-02-28T10:52:11;100768.03;;;19.04;42.56
39435;BME280;66825;51.880;-0.518;2024-02-28T10:54:40;100842.13;;;19.59;42.24
39435;BME280;66825;51.880;-0.518;2024-02-28T10:57:10;100836.03;;;19.62;42.39
39435;BME280;66825;51.880;-0.518;2024-02-28T10:59:37;100840.88;;;19.65;42.35
39435;BME280;66825;51.880;-0.518;2024-02-28T11:02:03;100841.69;;;19.65;42.43
39435;BME280;66825;51.880;-0.518;2024-02-28T11:04:29;100832.06;;;19.68;42.00
39435;BME280;66825;51.880;-0.518;2024-02-28T11:06:56;100836.53;;;19.64;42.27
39435;BME280;66825;51.880;-0.518;2024-02-28T11:09:23;100815.19;;;19.66;41.92
39435;BME280;66825;51.880;-0.518;2024-02-28T11:11:49;100817.47;;;19.73;41.77
39435;BME280;66825;51.880;-0.518;2024-02-28T11:14:18;100796.44;;;19.59;41.67
39435;BME280;66825;51.880;-0.518;2024-02-28T11:16:48;100816.81;;;19.67;41.47
39435;BME280;66825;51.880;-0.518;2024-02-28T11:19:24;100801.50;;;19.52;41.36
39435;BME280;66825;51.880;-0.518;2024-02-28T11:21:56;100802.81;;;19.55;41.26
39435;BME280;66825;51.880;-0.518;2024-02-28T11:24:29;100724.94;;;19.01;41.22
39435;BME280;66825;51.880;-0.518;2024-02-28T11:26:56;100776.94;;;19.38;41.57
39435;BME280;66825;51.880;-0.518;2024-02-28T11:29:26;100812.34;;;19.57;41.66
39435;BME280;66825;51.880;-0.518;2024-02-28T11:31:53;100807.28;;;19.50;41.55
39435;BME280;66825;51.880;-0.518;2024-02-28T11:34:19;100801.31;;;19.48;41.68
39435;BME280;66825;51.880;-0.518;2024-02-28T11:36:49;100812.44;;;19.52;41.30
39435;BME280;66825;51.880;-0.518;2024-02-28T11:39:15;100684.69;;;18.79;41.59
39435;BME280;66825;51.880;-0.518;2024-02-28T11:41:42;100796.97;;;19.47;41.31
39435;BME280;66825;51.880;-0.518;2024-02-28T11:44:14;100801.63;;;19.47;41.60
39435;BME280;66825;51.880;-0.518;2024-02-28T11:46:47;100797.97;;;19.38;41.59
39435;BME280;66825;51.880;-0.518;2024-02-28T11:49:13;100798.38;;;19.45;41.79
39435;BME280;66825;51.880;-0.518;2024-02-28T11:51:45;100737.59;;;19.11;42.33
39435;BME280;66825;51.880;-0.518;2024-02-28T11:54:11;100789.38;;;19.44;42.13
39435;BME280;66825;51.880;-0.518;2024-02-28T11:56:37;100786.84;;;19.48;42.38
39435;BME280;66825;51.880;-0.518;2024-02-28T11:59:06;100738.91;;;19.28;42.36
39435;BME280;66825;51.880;-0.518;2024-02-28T12:01:41;100769.53;;;19.52;41.79
39435;BME280;66825;51.880;-0.518;2024-02-28T12:04:09;100769.75;;;19.56;41.92
39435;BME280;66825;51.880;-0.518;2024-02-28T12:06:36;100763.66;;;19.59;42.35
39435;BME280;66825;51.880;-0.518;2024-02-28T12:09:03;100758.19;;;19.59;41.95
39435;BME280;66825;51.880;-0.518;2024-02-28T12:11:30;100734.53;;;19.41;42.03
39435;BME280;66825;51.880;-0.518;2024-02-28T12:13:55;100733.00;;;19.48;41.73
39435;BME280;66825;51.880;-0.518;2024-02-28T12:16:27;100583.00;;;18.46;41.95
39435;BME280;66825;51.880;-0.518;2024-02-28T12:18:53;100745.25;;;19.51;41.94
39435;BME280;66825;51.880;-0.518;2024-02-28T12:21:19;100725.25;;;19.42;41.83
39435;BME280;66825;51.880;-0.518;2024-02-28T12:23:46;100716.00;;;19.38;42.87
39435;BME280;66825;51.880;-0.518;2024-02-28T12:26:13;100719.66;;;19.47;42.27
39435;BME280;66825;51.880;-0.518;2024-02-28T12:28:38;100726.22;;;19.46;42.14
39435;BME280;66825;51.880;-0.518;2024-02-28T12:31:05;100720.38;;;19.52;42.28
39435;BME280;66825;51.880;-0.518;2024-02-28T12:33:34;100704.97;;;19.43;42.49
39435;BME280;66825;51.880;-0.518;2024-02-28T12:35:59;100701.72;;;19.55;42.74